createdAt,value
2023-04-12T00:01:52.319Z,99427.25
2023-04-12T00:04:19.059Z,99422.00
2023-04-12T00:06:48.570Z,99407.56
2023-04-12T00:09:18.553Z,99421.94
2023-04-12T00:11:47.538Z,99419.56
2023-04-12T00:14:21.410Z,99408.53
2023-04-12T00:16:47.946Z,99437.13
2023-04-12T00:19:17.861Z,99420.28
2023-04-12T00:21:45.280Z,99421.09
2023-04-12T00:24:14.324Z,99436.56
2023-04-12T00:26:43.411Z,99432.16
2023-04-12T00:29:10.062Z,99431.28
2023-04-12T00:31:36.665Z,99419.22
2023-04-12T00:34:05.796Z,99420.00
2023-04-12T00:36:34.704Z,99416.53
2023-04-12T00:39:01.270Z,99418.19
2023-04-12T00:41:33.140Z,99420.88
2023-04-12T00:44:02.433Z,99423.31
2023-04-12T00:46:29.666Z,99424.81
2023-04-12T00:48:58.599Z,99423.09
2023-04-12T00:51:25.573Z,99417.72
2023-04-12T00:53:59.648Z,99402.59
2023-04-12T00:56:29.241Z,99412.66
2023-04-12T00:58:58.497Z,99412.72
2023-04-12T01:01:25.161Z,99416.97
2023-04-12T01:04:01.089Z,99429.53
2023-04-12T01:07:15.601Z,99429.09
2023-04-12T01:10:20.619Z,99424.97
2023-04-12T01:13:34.815Z,99431.22
2023-04-12T01:16:12.799Z,99422.00
2023-04-12T01:18:45.680Z,99417.63
2023-04-12T01:21:19.826Z,99417.38
2023-04-12T01:24:01.215Z,99422.81
2023-04-12T01:26:44.349Z,99425.16
2023-04-12T01:29:23.309Z,99415.78
2023-04-12T01:31:56.636Z,99415.72
2023-04-12T01:34:28.445Z,99410.50
2023-04-12T01:37:04.363Z,99406.84
2023-04-12T01:39:33.307Z,99418.03
2023-04-12T01:42:02.767Z,99418.78
2023-04-12T01:44:29.713Z,99409.28
2023-04-12T01:46:56.706Z,99410.00
2023-04-12T01:49:31.635Z,99408.19
2023-04-12T01:52:12.251Z,99404.09
2023-04-12T01:54:49.202Z,99405.88
2023-04-12T01:57:15.899Z,99404.16
2023-04-12T01:59:44.475Z,99405.84
2023-04-12T02:02:18.993Z,99395.59
2023-04-12T02:04:49.985Z,99399.03
2023-04-12T02:07:18.888Z,99393.34
2023-04-12T02:09:45.707Z,99388.19
2023-04-12T02:12:13.252Z,99378.22
2023-04-12T02:14:42.345Z,99373.13
2023-04-12T02:17:13.248Z,99363.13
2023-04-12T02:19:39.813Z,99358.00
2023-04-12T02:22:08.104Z,99345.25
2023-04-12T02:24:39.513Z,99352.91
2023-04-12T02:27:06.127Z,99357.94
2023-04-12T02:29:37.641Z,99340.09
2023-04-12T02:32:04.513Z,99342.69
2023-04-12T02:34:34.364Z,99344.63
2023-04-12T02:37:00.983Z,99339.66
2023-04-12T02:39:29.237Z,99342.22
2023-04-12T02:41:57.045Z,99341.59
2023-04-12T02:44:23.720Z,99352.00
2023-04-12T02:46:50.271Z,99351.75
2023-04-12T02:49:16.838Z,99361.16
2023-04-12T02:51:48.777Z,99373.19
2023-04-12T02:54:17.648Z,99375.81
2023-04-12T02:56:48.916Z,99392.00
2023-04-12T02:59:17.756Z,99411.59
2023-04-12T03:02:03.068Z,99405.34
2023-04-12T03:04:30.784Z,99414.31
2023-04-12T03:06:57.551Z,99416.03
2023-04-12T03:09:25.163Z,99414.47
2023-04-12T03:11:51.847Z,99405.41
2023-04-12T03:14:23.218Z,99413.59
2023-04-12T03:16:51.309Z,99402.28
2023-04-12T03:19:20.425Z,99407.19
2023-04-12T03:21:47.030Z,99398.69
2023-04-12T03:24:13.982Z,99393.72
2023-04-12T03:26:42.267Z,99391.22
2023-04-12T03:29:10.112Z,99386.97
2023-04-12T03:31:38.016Z,99386.91
2023-04-12T03:34:04.763Z,99373.25
2023-04-12T03:36:33.847Z,99368.06
2023-04-12T03:39:04.893Z,99373.94
2023-04-12T03:41:31.437Z,99368.88
2023-04-12T03:43:58.288Z,99368.81
2023-04-12T03:46:27.309Z,99368.06
2023-04-12T03:48:54.521Z,99371.84
2023-04-12T03:51:22.293Z,99372.78
2023-04-12T03:53:48.906Z,99373.59
2023-04-12T03:56:20.094Z,99375.63
2023-04-12T03:58:49.531Z,99370.38
2023-04-12T04:01:18.348Z,99362.59
2023-04-12T04:03:49.531Z,99366.03
2023-04-12T04:06:17.531Z,99366.28
2023-04-12T04:08:46.561Z,99359.44
2023-04-12T04:11:13.826Z,99359.47
2023-04-12T04:13:46.801Z,99352.88
2023-04-12T04:16:14.024Z,99350.47
2023-04-12T04:18:40.710Z,99340.81
2023-04-12T04:21:07.746Z,99345.22
2023-04-12T04:23:45.014Z,99335.81
2023-04-12T04:26:12.527Z,99337.59
2023-04-12T04:28:42.223Z,99336.13
2023-04-12T04:31:11.370Z,99335.75
2023-04-12T04:33:39.086Z,99355.41
2023-04-12T04:36:09.845Z,99345.38
2023-04-12T04:38:36.923Z,99350.28
2023-04-12T04:41:09.210Z,99353.81
2023-04-12T04:43:39.971Z,99357.66
2023-04-12T04:46:06.897Z,99359.44
2023-04-12T04:48:36.481Z,99359.03
2023-04-12T04:51:03.153Z,99365.00
2023-04-12T04:53:29.828Z,99357.84
2023-04-12T04:56:02.701Z,99369.50
2023-04-12T04:58:34.210Z,99363.69
2023-04-12T05:01:00.851Z,99358.00
2023-04-12T05:03:34.183Z,99360.53
2023-04-12T05:06:05.587Z,99364.00
2023-04-12T05:08:36.810Z,99365.00
2023-04-12T05:11:03.477Z,99360.09
2023-04-12T05:13:30.136Z,99350.75
2023-04-12T05:16:06.122Z,99347.72
2023-04-12T05:18:32.632Z,99357.97
2023-04-12T05:21:03.767Z,99352.09
2023-04-12T05:23:33.129Z,99347.19
2023-04-12T05:26:01.936Z,99354.41
2023-04-12T05:28:28.485Z,99352.06
2023-04-12T05:30:55.095Z,99346.22
2023-04-12T05:33:21.740Z,99348.09
2023-04-12T05:35:48.326Z,99343.22
2023-04-12T05:38:14.894Z,99341.66
2023-04-12T05:40:46.139Z,99335.06
2023-04-12T05:43:13.120Z,99343.84
2023-04-12T05:45:42.110Z,99332.09
2023-04-12T05:48:08.934Z,99333.31
2023-04-12T05:50:36.057Z,99336.81
2023-04-12T05:53:02.791Z,99342.75
2023-04-12T05:55:29.997Z,99337.78
2023-04-12T05:57:58.551Z,99354.91
2023-04-12T06:00:25.299Z,99353.34
2023-04-12T06:02:52.559Z,99360.31
2023-04-12T06:05:19.536Z,99366.63
2023-04-12T06:07:49.763Z,99376.00
2023-04-12T06:10:17.533Z,99372.59
2023-04-12T06:12:46.990Z,99374.69
2023-04-12T06:15:19.836Z,99389.16
2023-04-12T06:17:46.602Z,99386.69
2023-04-12T06:20:15.687Z,99378.22
2023-04-12T06:22:44.432Z,99377.28
2023-04-12T06:25:11.154Z,99374.78
2023-04-12T06:27:37.703Z,99380.88
2023-04-12T06:30:04.502Z,99377.63
2023-04-12T06:32:31.281Z,99380.81
2023-04-12T06:34:57.854Z,99373.25
2023-04-12T06:37:26.633Z,99380.16
2023-04-12T06:39:55.486Z,99375.91
2023-04-12T06:42:22.061Z,99376.78
2023-04-12T06:44:48.594Z,99368.50
2023-04-12T06:47:16.033Z,99358.44
2023-04-12T06:49:42.860Z,99367.06
2023-04-12T06:52:09.460Z,99364.34
2023-04-12T06:54:44.420Z,99363.69
2023-04-12T06:57:13.311Z,99360.19
2023-04-12T06:59:42.235Z,99372.31
2023-04-12T07:02:08.934Z,99373.16
2023-04-12T07:04:37.998Z,99368.97
2023-04-12T07:07:04.602Z,99368.09
2023-04-12T07:09:36.462Z,99374.03
2023-04-12T07:12:03.097Z,99381.75
2023-04-12T07:14:34.515Z,99393.53
2023-04-12T07:17:01.134Z,99373.91
2023-04-12T07:19:29.705Z,99377.53
2023-04-12T07:21:56.369Z,99372.38
2023-04-12T07:24:27.697Z,99371.72
2023-04-12T07:59:48.302Z,99379.75
2023-04-12T08:02:34.394Z,99373.06
2023-04-12T08:08:48.229Z,99378.91
2023-04-12T08:11:24.012Z,99374.63
2023-04-12T08:13:50.562Z,99371.41
2023-04-12T08:16:17.297Z,99369.78
2023-04-12T08:18:43.913Z,99381.63
2023-04-12T08:21:10.701Z,99383.38
2023-04-12T08:23:37.410Z,99397.13
2023-04-12T08:26:04.184Z,99388.75
2023-04-12T08:28:31.242Z,99387.97
2023-04-12T08:30:59.263Z,99381.09
2023-04-12T08:33:26.708Z,99383.75
2023-04-12T08:35:56.762Z,99374.13
2023-04-12T08:38:37.659Z,99381.91
2023-04-12T08:41:15.542Z,99381.09
2023-04-12T08:43:47.844Z,99376.72
2023-04-12T08:46:37.919Z,99369.97
2023-04-12T08:49:11.411Z,99370.91
2023-04-12T08:51:38.848Z,99364.91
2023-04-12T08:54:05.742Z,99368.34
2023-04-12T08:56:32.624Z,99364.06
2023-04-12T09:03:23.606Z,99368.41
2023-04-12T09:05:50.354Z,99367.56
2023-04-12T09:08:17.584Z,99359.84
2023-04-12T09:10:44.179Z,99366.75
2023-04-12T09:13:10.777Z,99362.38
2023-04-12T09:15:51.221Z,99354.63
2023-04-12T09:18:18.855Z,99363.25
2023-04-12T09:20:45.458Z,99356.41
2023-04-12T09:23:20.377Z,99351.31
2023-04-12T09:25:50.142Z,99352.13
2023-04-12T09:28:30.015Z,99344.41
2023-04-12T09:30:59.029Z,99346.13
2023-04-12T09:33:38.617Z,99340.13
2023-04-12T09:52:01.458Z,99328.97
2023-04-12T09:54:31.544Z,99327.25
2023-04-12T09:57:01.114Z,99306.63
2023-04-12T09:59:31.344Z,99320.34
2023-04-12T10:01:59.198Z,99315.19
2023-04-12T10:04:31.438Z,99306.47
2023-04-12T10:07:01.877Z,99326.28
2023-04-12T10:09:31.320Z,99325.44
2023-04-12T10:12:00.082Z,99313.47
2023-04-12T10:14:30.763Z,99313.47
2023-04-12T10:16:59.188Z,99315.13
2023-04-12T10:19:33.884Z,99297.09
2023-04-12T10:22:02.061Z,99312.53
2023-04-12T10:24:29.171Z,99308.28
2023-04-12T10:26:58.527Z,99318.66
2023-04-12T10:29:27.658Z,99325.56
2023-04-12T10:31:58.631Z,99322.09
2023-04-12T10:34:33.562Z,99313.47
2023-04-12T10:37:02.007Z,99304.81
2023-04-12T10:39:57.989Z,99288.47
2023-04-12T10:42:29.119Z,99295.41
2023-04-12T10:45:19.997Z,99296.22
2023-04-12T10:47:49.777Z,99289.22
2023-04-12T10:50:19.403Z,99284.06
2023-04-12T10:53:18.254Z,99289.13
2023-04-12T10:55:50.575Z,99288.22
2023-04-12T10:58:48.442Z,99276.78
2023-04-12T11:01:18.519Z,99283.75
2023-04-12T11:04:06.960Z,99279.47
2023-04-12T11:06:42.872Z,99274.00
2023-04-12T11:09:37.313Z,99273.19
2023-04-12T11:12:03.881Z,99271.44
2023-04-12T11:14:37.123Z,99267.59
2023-04-12T11:17:06.851Z,99264.38
2023-04-12T11:19:40.198Z,99272.38
2023-04-12T11:22:14.027Z,99259.44
2023-04-12T11:24:43.851Z,99268.34
2023-04-12T11:31:56.661Z,99252.72
2023-04-12T11:34:23.379Z,99245.91
2023-04-12T11:36:54.121Z,99254.00
2023-04-12T11:39:30.598Z,99246.91
2023-04-12T11:41:58.644Z,99250.28
2023-04-12T11:44:25.634Z,99244.84
2023-04-12T11:46:55.151Z,99247.66
2023-04-12T11:49:26.041Z,99239.09
2023-04-12T11:52:04.972Z,99244.31
2023-04-12T11:54:34.796Z,99236.47
2023-04-12T11:57:05.706Z,99243.19
2023-04-12T11:59:35.852Z,99227.63
2023-04-12T12:02:21.277Z,99225.72
2023-04-12T12:04:52.518Z,99226.53
2023-04-12T12:07:21.690Z,99217.75
2023-04-12T12:09:52.755Z,99223.03
2023-04-12T12:12:21.624Z,99213.97
2023-04-12T12:14:48.290Z,99218.22
2023-04-12T12:17:17.104Z,99210.91
2023-04-12T12:19:48.617Z,99209.88
2023-04-12T12:22:16.521Z,99206.53
2023-04-12T12:25:32.112Z,99200.88
2023-04-12T12:27:59.391Z,99195.84
2023-04-12T12:30:28.374Z,99199.97
2023-04-12T12:32:55.015Z,99195.88
2023-04-12T12:35:21.601Z,99188.50
2023-04-12T12:37:50.681Z,99178.16
2023-04-12T12:40:17.620Z,99180.44
2023-04-12T12:42:54.222Z,99176.97
2023-04-12T12:45:23.966Z,99181.97
2023-04-12T12:48:04.601Z,99188.78
2023-04-12T12:50:33.466Z,99176.28
2023-04-12T12:53:06.155Z,99181.03
2023-04-12T12:55:35.534Z,99176.59
2023-04-12T12:58:07.570Z,99188.94
2023-04-12T13:00:38.155Z,99178.44
2023-04-12T13:03:08.080Z,99167.78
2023-04-12T13:05:34.813Z,99165.94
2023-04-12T13:08:03.776Z,99166.25
2023-04-12T13:10:30.423Z,99168.41
2023-04-12T13:12:59.332Z,99160.50
2023-04-12T13:15:28.455Z,99170.13
2023-04-12T13:17:55.855Z,99172.31
2023-04-12T13:20:23.276Z,99164.91
2023-04-12T13:22:54.609Z,99164.88
2023-04-12T13:25:21.605Z,99167.94
2023-04-12T13:27:49.290Z,99159.25
2023-04-12T13:30:16.117Z,99164.28
2023-04-12T13:32:44.980Z,99153.88
2023-04-12T13:35:13.894Z,99153.22
2023-04-12T13:37:40.481Z,99145.91
2023-04-12T13:40:07.885Z,99133.63
2023-04-12T13:42:34.686Z,99132.88
2023-04-12T13:45:07.040Z,99138.53
2023-04-12T13:47:38.294Z,99137.16
2023-04-12T13:50:07.893Z,99131.28
2023-04-12T13:52:34.430Z,99137.97
2023-04-12T13:55:08.456Z,99128.28
2023-04-12T13:57:37.796Z,99135.00
2023-04-12T14:00:07.324Z,99132.28
2023-04-12T14:02:34.184Z,99132.16
2023-04-12T14:05:06.281Z,99133.53
2023-04-12T14:07:33.327Z,99124.84
2023-04-12T14:10:02.073Z,99127.22
2023-04-12T14:12:30.871Z,99124.91
2023-04-12T14:14:59.942Z,99127.59
2023-04-12T14:17:32.612Z,99134.91
2023-04-12T14:20:01.967Z,99122.94
2023-04-12T14:22:30.604Z,99120.59
2023-04-12T14:24:57.192Z,99116.22
2023-04-12T14:27:23.854Z,99121.03
2023-04-12T14:29:50.438Z,99114.56
2023-04-12T14:32:17.122Z,99116.16
2023-04-12T14:34:43.870Z,99116.72
2023-04-12T14:37:10.925Z,99115.88
2023-04-12T14:39:39.741Z,99121.13
2023-04-12T14:42:06.628Z,99117.16
2023-04-12T14:47:25.346Z,99113.84
2023-04-12T14:49:54.460Z,99106.69
2023-04-12T14:52:21.206Z,99110.28
2023-04-12T14:54:47.832Z,99111.91
2023-04-12T14:57:15.860Z,99113.41
2023-04-12T14:59:44.743Z,99106.69
2023-04-12T15:02:13.733Z,99113.47
2023-04-12T15:04:42.655Z,99112.63
2023-04-12T15:07:11.767Z,99115.00
2023-04-12T15:09:38.590Z,99117.44
2023-04-12T15:12:05.309Z,99119.13
2023-04-12T15:14:36.589Z,99116.31
2023-04-12T15:17:03.137Z,99118.88
2023-04-12T15:19:31.522Z,99127.84
2023-04-12T15:22:00.650Z,99114.19
2023-04-12T15:24:27.346Z,99113.44
2023-04-12T15:26:53.960Z,99110.44
2023-04-12T15:29:24.399Z,99112.03
2023-04-12T15:31:51.745Z,99120.06
2023-04-12T15:34:23.227Z,99117.66
2023-04-12T15:36:53.000Z,99121.13
2023-04-12T15:39:19.945Z,99121.38
2023-04-12T15:41:46.583Z,99123.09
2023-04-12T15:44:13.530Z,99123.88
2023-04-12T15:46:41.687Z,99120.03
2023-04-12T15:49:09.125Z,99120.06
2023-04-12T15:51:36.164Z,99111.84
2023-04-12T15:54:07.720Z,99119.53
2023-04-12T15:56:35.466Z,99118.72
2023-04-12T15:59:02.153Z,99114.84
2023-04-12T16:01:29.028Z,99117.25
2023-04-12T16:03:55.951Z,99113.50
2023-04-12T16:06:25.434Z,99112.25
2023-04-12T16:08:57.560Z,99115.34
2023-04-12T16:11:29.753Z,99110.97
2023-04-12T16:13:56.576Z,99119.03
2023-04-12T16:16:28.081Z,99114.47
2023-04-12T16:18:57.061Z,99116.13
2023-04-12T16:21:26.412Z,99120.13
2023-04-12T16:23:55.564Z,99103.09
2023-04-12T16:26:22.543Z,99089.31
2023-04-12T16:28:50.516Z,99100.66
2023-04-12T16:31:17.486Z,99103.34
2023-04-12T16:33:45.326Z,99108.94
2023-04-12T16:36:12.081Z,99105.22
2023-04-12T16:38:38.714Z,99106.31
2023-04-12T16:41:05.652Z,99100.28
2023-04-12T16:43:34.688Z,99079.78
2023-04-12T16:46:05.095Z,99092.56
2023-04-12T16:48:32.546Z,99088.44
2023-04-12T16:51:02.053Z,99098.78
2023-04-12T16:53:28.582Z,99095.56
2023-04-12T16:55:57.910Z,99095.78
2023-04-12T16:58:24.720Z,99103.50
2023-04-12T17:00:54.008Z,99097.72
2023-04-12T17:03:24.256Z,99101.00
2023-04-12T17:05:53.266Z,99089.00
2023-04-12T17:08:20.323Z,99088.28
2023-04-12T17:10:49.431Z,99102.75
2023-04-12T17:13:18.078Z,99090.78
2023-04-12T17:15:48.340Z,99085.69
2023-04-12T17:18:17.320Z,99094.47
2023-04-12T17:20:44.195Z,99097.94
2023-04-12T17:23:11.213Z,99104.06
2023-04-12T17:25:38.125Z,99106.50
2023-04-12T17:28:04.956Z,99106.56
2023-04-12T17:30:31.911Z,99104.19
2023-04-12T17:33:01.241Z,99110.28
2023-04-12T17:35:30.639Z,99103.47
2023-04-12T17:37:57.183Z,99089.72
2023-04-12T17:40:26.132Z,99086.41
2023-04-12T17:42:52.710Z,99088.16
2023-04-12T17:45:21.615Z,99086.41
2023-04-12T17:48:04.060Z,99090.72
2023-04-12T17:50:31.077Z,99105.31
2023-04-12T17:56:44.872Z,99101.94
2023-04-12T17:59:11.533Z,99094.25
2023-04-12T18:01:38.149Z,99097.69
2023-04-12T18:04:08.403Z,99101.19
2023-04-12T18:06:43.562Z,99096.94
2023-04-12T18:09:12.859Z,99102.19
2023-04-12T18:11:42.438Z,99103.97
2023-04-12T18:14:14.502Z,99103.97
2023-04-12T18:16:43.512Z,99096.28
2023-04-12T18:19:11.333Z,99094.56
2023-04-12T18:21:37.938Z,99095.38
2023-04-12T18:24:07.041Z,99095.38
2023-04-12T18:26:33.742Z,99104.88
2023-04-12T18:29:00.413Z,99101.41
2023-04-12T18:38:00.622Z,99107.53
2023-04-12T18:40:36.023Z,99108.41
2023-04-12T18:43:05.017Z,99114.38
2023-04-12T18:49:12.100Z,99117.84
2023-04-12T18:51:38.726Z,99115.28
2023-04-12T19:04:27.368Z,99133.25
2023-04-12T19:06:58.935Z,99133.94
2023-04-12T19:09:29.865Z,99134.91
2023-04-12T19:11:56.989Z,99128.84
2023-04-12T19:14:25.181Z,99129.66
2023-04-12T19:16:54.687Z,99133.09
2023-04-12T19:27:28.934Z,99131.44
2023-04-12T19:29:58.619Z,99126.88
2023-04-12T19:32:30.533Z,99127.72
2023-04-12T19:34:57.085Z,99138.16
2023-04-12T19:37:25.919Z,99133.09
2023-04-12T19:39:54.904Z,99130.56
2023-04-12T19:42:24.289Z,99133.13
2023-04-12T19:44:53.299Z,99124.63
2023-04-12T19:47:22.558Z,99131.47
2023-04-12T19:49:49.360Z,99129.75
2023-04-12T19:52:19.988Z,99121.16
2023-04-12T19:54:48.895Z,99128.00
2023-04-12T19:57:15.490Z,99122.88
2023-04-12T19:59:45.537Z,99115.16
2023-04-12T20:02:12.295Z,99117.72
2023-04-12T20:04:41.664Z,99105.72
2023-04-12T20:07:11.410Z,99113.44
2023-04-12T20:09:40.833Z,99111.69
2023-04-12T20:12:12.885Z,99110.84
2023-04-12T20:14:39.935Z,99117.72
2023-04-12T20:17:06.629Z,99110.88
2023-04-12T20:19:33.241Z,99109.13
2023-04-12T20:22:03.807Z,99112.44
2023-04-12T20:24:30.516Z,99102.22
2023-04-12T20:26:57.504Z,99103.09
2023-04-12T20:29:24.068Z,99100.56
2023-04-12T20:31:51.580Z,99103.13
2023-04-12T20:34:19.225Z,99113.38
2023-04-12T20:36:48.366Z,99109.06
2023-04-12T20:39:17.792Z,99113.31
2023-04-12T20:41:49.993Z,99113.19
2023-04-12T20:44:19.793Z,99103.84
2023-04-12T20:46:49.092Z,99095.13
2023-04-12T20:49:15.825Z,99096.78
2023-04-12T20:51:46.646Z,99098.53
2023-04-12T20:54:13.745Z,99091.66
2023-04-12T20:56:40.319Z,99093.25
2023-04-12T20:59:10.457Z,99094.91
2023-04-12T21:01:39.564Z,99083.00
2023-04-12T21:04:06.682Z,99083.03
2023-04-12T21:06:37.520Z,99081.34
2023-04-12T21:09:05.909Z,99075.41
2023-04-12T21:11:32.851Z,99076.13
2023-04-12T21:13:59.727Z,99070.22
2023-04-12T21:16:28.616Z,99079.56
2023-04-12T21:18:56.339Z,99077.75
2023-04-12T21:21:23.061Z,99078.59
2023-04-12T21:23:51.573Z,99086.28
2023-04-12T21:26:21.707Z,99079.50
2023-04-12T21:28:48.660Z,99087.94
2023-04-12T21:31:16.143Z,99082.06
2023-04-12T21:33:45.612Z,99077.81
2023-04-12T21:36:15.080Z,99087.09
2023-04-12T21:38:42.208Z,99076.97
2023-04-12T21:41:13.012Z,99083.97
2023-04-12T21:43:40.066Z,99082.31
2023-04-12T21:46:15.261Z,99070.56
2023-04-12T21:48:44.017Z,99069.78
2023-04-12T21:51:10.771Z,99060.41
2023-04-12T21:53:37.350Z,99058.75
2023-04-12T21:56:06.839Z,99055.31
2023-04-12T21:58:35.624Z,99046.72
2023-04-12T22:01:02.618Z,99049.34
2023-04-12T22:03:29.364Z,99051.91
2023-04-12T22:06:04.120Z,99052.69
2023-04-12T22:08:33.126Z,99045.06
2023-04-12T22:11:00.494Z,99047.66
2023-04-12T22:13:27.617Z,99038.34
2023-04-12T22:15:57.889Z,99040.94
2023-04-12T22:18:27.336Z,99046.13
2023-04-12T22:20:57.800Z,99047.00
2023-04-12T22:23:24.375Z,99041.84
2023-04-12T22:25:50.955Z,99038.38
2023-04-12T22:28:18.346Z,99041.84
2023-04-12T22:30:46.820Z,99040.13
2023-04-12T22:33:16.065Z,99041.84
2023-04-12T22:35:42.644Z,99038.47
2023-04-12T22:38:09.302Z,99033.34
2023-04-12T22:40:37.915Z,99024.75
2023-04-12T22:43:04.456Z,99030.78
2023-04-12T22:45:33.517Z,99024.78
2023-04-12T22:48:00.185Z,99024.78
2023-04-12T22:50:26.862Z,99035.09
2023-04-12T22:52:57.907Z,99028.22
2023-04-12T22:55:28.790Z,99031.72
2023-04-12T22:58:05.784Z,99033.44
2023-04-12T23:00:35.583Z,99033.44
2023-04-12T23:03:05.486Z,99022.38
2023-04-12T23:05:34.435Z,99024.06
2023-04-12T23:08:00.975Z,99035.25
2023-04-12T23:10:28.166Z,99029.25
2023-04-12T23:12:57.154Z,99030.09
2023-04-12T23:15:26.234Z,99037.00
2023-04-12T23:17:55.071Z,99033.63
2023-04-12T23:20:25.202Z,99029.34
2023-04-12T23:22:58.441Z,99027.66
2023-04-12T23:25:41.839Z,99025.09
2023-04-12T23:28:14.182Z,99029.38
2023-04-12T23:30:47.832Z,99028.53
2023-04-12T23:33:18.162Z,99016.53
2023-04-12T23:35:46.547Z,99014.84
2023-04-12T23:38:24.323Z,99018.28
2023-04-12T23:40:56.190Z,99016.56
2023-04-12T23:43:24.457Z,99007.16
2023-04-12T23:45:57.169Z,99009.72
2023-04-12T23:48:24.353Z,99008.88
2023-04-12T23:50:51.506Z,99002.00
2023-04-12T23:53:19.185Z,98996.03
2023-04-12T23:55:51.095Z,98997.72
2023-04-12T23:58:21.570Z,98994.28
